Powhatan Point, Ohio
Current Conditions -  °F | °C
As of 8:53 AM on Monday 26 Jan 2015 (Local Time) from KHLG Reporting Station
Haze Haze  
Wind Chill: 18°   Ceiling: 600
Heat Index: 26°   Visibility: 1.7mi
Dew Point: 23°   Wind: 8mph
Humidity: 88%   Direction: 340°NNW
Pressure: 29.69"   Gusts: NA
Location:  39.86°N, 80.82°W
Report Text: KHLG 261353Z 34007KT 1 3/4SM BR OVC006 M03/M05 A2969 RMK AO2 SNE51 CIG 004V009 SLP068 P0001 T10331050
Loading
Personal Weather Stations






























Interactive Weather Map New forecast layout! Learn more

10-Day Weather Forecast

Advertisements
Track Severe Weather on mobile